• Join FlightAware (Why Join?)
  • Login
  • US Flag 
06:06AM EDT


 

Airport Tracker/Info


-or-


 

Live Flight TrackerFlight Track Log ✈ SWA1635 ✈ 30-Apr-2013 ✈ KLAS - KTUS

Flight Track Log - Related Links

Times and Time Zones

All times are in EDT time to prevent confusion due to time zone crossing. See the SWA1635 flight status page for this flight to view local times or setup timezone preferences in your user account.

Time Position Orientation Groundspeed Altitude Reporting Facility
EDT Latitude Longitude Course Direction KTS MPH feet Rate Location/Type
11:13AM 36.0783 -115.1739 264° West 170 196 3,500  Level Los Angeles Center
11:14AM 36.0722 -115.2406 264° West 202 232 5,200 1,680 Climbing Los Angeles Center
11:15AM 36.0056 -115.2842 208° Southwest 272 313 7,100 2,820 Climbing Los Angeles Center
11:16AM 35.9281 -115.2842 180° South 283 326 11,100 3,240 Climbing Los Angeles Center
11:17AM 35.8572 -115.2250 146° Southeast 313 360 13,900 2,820 Climbing Los Angeles Center
11:18AM 35.8250 -115.0825 106° East 359 413 17,000 2,580 Climbing Los Angeles Center
11:19AM 35.8306 -114.9481 87° East 388 447 19,300 2,820 Climbing Los Angeles Center
11:20AM 35.8161 -114.8153 98° East 391 450 22,900 2,940 Climbing Los Angeles Center
11:21AM 35.7925 -114.6817 102° East 399 459 25,400 2,100 Climbing Los Angeles Center
11:22AM 35.7683 -114.5408 102° East 418 481 27,300 2,160 Climbing Los Angeles Center
11:23AM 35.7303 -114.3678 105° East 439 505 29,900 2,280 Climbing Los Angeles Center
11:24AM 35.6431 -114.2633 136° Southeast 436 502 32,100 1,440 Climbing Los Angeles Center
11:25AM 35.5639 -114.1783 139° Southeast 436 502 32,900 360 Climbing Los Angeles Center
11:26AM 35.4533 -114.0603 139° Southeast 440 506 32,900  Level Los Angeles Center
11:27AM 35.3842 -113.9861 139° Southeast 441 507 32,900  Level Los Angeles Center
11:29AM 35.1769 -113.7664 139° Southeast 445 512 32,900  Level Albuquerque Center
11:29AM 35.1586 -113.7472 139° Southeast 443 510 32,900  Level Los Angeles Center
11:30AM 35.0478 -113.6297 139° Southeast 443 510 32,900  Level Los Angeles Center
11:32AM 34.9550 -113.5319 139° Southeast 445 512 32,900  Level Los Angeles Center
11:33AM 34.8653 -113.4331 138° Southeast 443 510 32,900  Level Los Angeles Center
11:33AM 34.8125 -113.3333 123° Southeast 443 510 32,900  Level Albuquerque Center
11:34AM 34.7450 -113.2092 123° Southeast 442 509 32,900  Level Albuquerque Center
11:35AM 34.6792 -113.0867 123° Southeast 440 506 32,900  Level Albuquerque Center
11:36AM 34.6128 -112.9644 123° Southeast 439 505 32,900  Level Albuquerque Center
11:37AM 34.5475 -112.8422 123° Southeast 437 503 32,900  Level Albuquerque Center
11:38AM 34.4625 -112.6997 126° Southeast 437 503 32,900  Level Albuquerque Center
11:39AM 34.3697 -112.6331 149° Southeast 440 506 32,900  Level Albuquerque Center
11:40AM 34.2444 -112.5447 150° Southeast 437 503 32,900  Level Albuquerque Center
11:42AM 34.1397 -112.4697 149° Southeast 438 504 32,900  Level Albuquerque Center
11:43AM 34.0361 -112.3964 150° Southeast 435 501 32,900 -180 Level Albuquerque Center
11:44AM 33.9319 -112.3225 150° Southeast 437 503 32,600 -660 Descending Albuquerque Center
11:45AM 33.8308 -112.2489 149° Southeast 431 496 31,600 -840 Descending Albuquerque Center
11:46AM 33.7094 -112.1647 150° Southeast 423 487 30,900 -360 Descending Albuquerque Center
11:47AM 33.6097 -112.0928 149° Southeast 422 486 30,900  Level Albuquerque Center
11:48AM 33.5086 -112.0219 150° Southeast 423 487 30,900 -540 Level Albuquerque Center
11:49AM 33.4028 -111.9667 156° South 423 487 29,800 -1,020 Descending Albuquerque Center
11:50AM 33.2850 -111.9533 175° South 426 490 28,900 -1,020 Descending Albuquerque Center
11:51AM 33.1450 -111.9372 174° South 421 484 27,700 -1,080 Descending Albuquerque Center
11:52AM 33.0294 -111.9233 174° South 418 481 26,700 -1,020 Descending Albuquerque Center
11:53AM 32.9178 -111.9114 175° South 406 467 25,700 -1,560 Descending Albuquerque Center
11:54AM 32.8217 -111.8547 154° Southeast 390 449 23,500 -2,280 Descending Albuquerque Center
11:55AM 32.7372 -111.7836 145° Southeast 375 432 21,100 -2,400 Descending Albuquerque Center
11:56AM 32.6344 -111.7036 147° Southeast 366 421 18,500 -2,400 Descending Albuquerque Center
11:57AM 32.5786 -111.6575 145° Southeast 358 412 16,900 -2,220 Descending Albuquerque Center
11:57AM 32.5589 -111.6344 135° Southeast 356 410 16,300 -2,100 Descending Albuquerque Center
11:58AM 32.5175 -111.5828 134° Southeast 350 403 15,000 -2,160 Descending Albuquerque Center
11:58AM 32.5006 -111.5469 119° Southeast 346 398 14,100 -2,100 Descending Albuquerque Center
11:59AM 32.4639 -111.4933 129° Southeast 337 388 12,900 -1,680 Descending Albuquerque Center
11:59AM 32.4489 -111.4581 117° Southeast 336 387 12,400 -1,500 Descending Albuquerque Center
12:00PM 32.4156 -111.4081 128° Southeast 313 360 11,400 -1,560 Descending Albuquerque Center
12:00PM 32.4014 -111.3736 116° Southeast 324 373 10,800 -1,620 Descending Albuquerque Center
12:01PM 32.3631 -111.3133 127° Southeast 298 343 9,600 -1,500 Descending Albuquerque Center
12:01PM 32.3558 -111.2939 114° Southeast 311 358 9,300 -1,500 Descending Albuquerque Center
12:02PM 32.3186 -111.2372 128° Southeast 289 333 8,100 -1,500 Descending Albuquerque Center
12:02PM 32.3117 -111.2183 114° Southeast 296 341 7,800 -1,020 Descending Albuquerque Center
12:03PM 32.2792 -111.1669 127° Southeast 279 321 7,200 -1,020 Descending Albuquerque Center
12:03PM 32.2622 -111.1303 119° Southeast 277 319 6,800 -900 Descending Albuquerque Center
12:04PM 32.2403 -111.0992 130° Southeast 256 295 6,300 -900 Descending Albuquerque Center
12:04PM 32.2258 -111.0636 116° Southeast 261 300 5,900 -600 Descending Albuquerque Center
12:05PM 32.2064 -111.0456 142° Southeast 201 231 5,700 -720 Descending Albuquerque Center
12:05PM 32.1947 -111.0167 116° Southeast 223 257 5,200 -1,140 Descending Albuquerque Center
12:06PM 32.1761 -111.0108 165° South 156 180 4,600 -1,020 Descending Albuquerque Center
12:06PM 32.1625 -110.9847 122° Southeast 183 211 4,200 -720 Descending Albuquerque Center
12:08PM 32.1161 -110.9410 128° Southeast  Level Estimated
12:15PM 32.1161 -110.9410 128° Southeast  Level Estimated
12:16PM 32.1161 -110.9410 128° Southeast  Level Estimated